createdAt,value
2022-07-25T00:03:49.163Z,16.98
2022-07-25T00:18:49.179Z,16.87
2022-07-25T00:33:49.238Z,16.25
2022-07-25T00:48:49.340Z,17.09
2022-07-25T01:03:49.122Z,16.38
2022-07-25T01:18:48.604Z,16.87
2022-07-25T01:33:49.277Z,16.47
2022-07-25T01:48:49.345Z,17.05
2022-07-25T02:03:48.814Z,16.36
2022-07-25T02:18:48.522Z,16.38
2022-07-25T02:33:48.668Z,16.65
2022-07-25T02:48:49.350Z,16.64
2022-07-25T03:03:48.669Z,20.44
2022-07-25T03:18:48.873Z,18.71
2022-07-25T03:33:49.002Z,15.44
2022-07-25T03:48:49.215Z,16.13
2022-07-25T04:03:48.974Z,16.22
2022-07-25T04:18:48.723Z,15.38
2022-07-25T04:33:50.620Z,15.02
2022-07-25T04:48:48.539Z,15.68
2022-07-25T05:03:49.954Z,14.92
2022-07-25T05:18:49.342Z,15.06
2022-07-25T05:33:49.210Z,14.91
2022-07-25T05:48:48.579Z,14.79
2022-07-25T06:03:49.181Z,14.4
2022-07-25T06:18:48.515Z,14.9
2022-07-25T06:33:49.121Z,15.1
2022-07-25T06:48:48.559Z,14
2022-07-25T07:03:48.978Z,13.99
2022-07-25T07:18:49.649Z,14.06
2022-07-25T07:33:48.782Z,13.96
2022-07-25T07:48:49.194Z,13.67
2022-07-25T08:03:48.433Z,13.35
2022-07-25T08:18:48.981Z,13.51
2022-07-25T08:33:48.791Z,12.87
2022-07-25T08:48:48.616Z,13.49
2022-07-25T09:03:48.609Z,12.34
2022-07-25T09:18:48.526Z,10.38
2022-07-25T09:33:48.611Z,9.86
2022-07-25T09:48:48.708Z,8.76
2022-07-25T10:03:49.220Z,6.25
2022-07-25T10:18:49.451Z,5.54
2022-07-25T10:33:48.896Z,5.91
2022-07-25T10:48:48.778Z,5.8
2022-07-25T11:03:48.848Z,5.53
2022-07-25T11:18:49.096Z,6.2
2022-07-25T11:33:49.161Z,5.59
2022-07-25T11:48:48.608Z,5.44
2022-07-25T12:03:48.865Z,5.94
2022-07-25T12:18:48.432Z,5.92
2022-07-25T12:33:49.059Z,7.15
2022-07-25T12:48:49.000Z,7.55
2022-07-25T13:03:48.959Z,7.67
2022-07-25T13:18:48.991Z,8.4
2022-07-25T13:33:49.122Z,8.8
2022-07-25T13:48:49.342Z,9.36
2022-07-25T14:03:48.726Z,9.38
2022-07-25T14:18:48.864Z,9.75
2022-07-25T14:33:48.634Z,10.01
2022-07-25T14:48:48.718Z,10.69
2022-07-25T15:03:48.470Z,11.06
2022-07-25T15:19:13.776Z,10.73
2022-07-25T15:33:48.819Z,11.14
2022-07-25T15:48:49.292Z,11.03
2022-07-25T16:03:48.882Z,11.19
2022-07-25T16:18:49.310Z,10.66
2022-07-25T16:33:48.873Z,10.68
2022-07-25T16:48:48.519Z,10.52
2022-07-25T17:03:48.417Z,11.13
2022-07-25T17:18:49.015Z,10.66
2022-07-25T17:33:49.227Z,10.31
2022-07-25T17:48:48.551Z,9.93
2022-07-25T18:03:49.084Z,9.01
2022-07-25T18:18:48.425Z,8.73
2022-07-25T18:33:48.695Z,7.73
2022-07-25T18:48:49.291Z,7.38
2022-07-25T19:03:49.608Z,9.13
2022-07-25T19:18:48.408Z,8.22
2022-07-25T19:33:48.543Z,8.33
2022-07-25T19:48:49.050Z,8.42
2022-07-25T20:03:48.765Z,8.13
2022-07-25T20:18:48.481Z,5.31
2022-07-25T20:33:48.762Z,5.11
2022-07-25T20:48:49.135Z,5.55
2022-07-25T21:03:48.714Z,5.03
2022-07-25T21:18:48.415Z,4.28
2022-07-25T21:33:49.028Z,3.54
2022-07-25T21:48:48.794Z,3.14
2022-07-25T22:03:48.605Z,3.49
2022-07-25T22:18:49.186Z,3.67
2022-07-25T22:33:48.890Z,3.67
2022-07-25T22:48:48.672Z,3.66
2022-07-25T23:03:48.529Z,3.97
2022-07-25T23:18:49.244Z,3.83
2022-07-25T23:33:49.030Z,5.12
2022-07-25T23:48:48.919Z,4.28
